Terminal Aerodrome Forecast
Issued by NWS Jackson, MS

Home | Current Version | Previous Version | Text Only | Print | Product List | Glossary On
Versions: 1 2 3 4 5 6 7 8 9 10 11 12 13 14 15 16
000
FTUS44 KJAN 300520
TAFGWO
TAF
KGWO 300520Z 3006/3106 17010KT P6SM -SHRA VCTS SCT035 BKN060CB
      BKN250
     FM301100 18010KT P6SM -SHRA VCTS SCT015 BKN025CB OVC060
     FM301700 21009KT P6SM VCTS BKN030 BKN050CB=

USA.gov is the U.S. government's official web portal to all federal, state and local government web resources and services.